sensor_id;sensor_type;location;lat;lon;timestamp;pressure;altitude;pressure_sealevel;temperature;humidity
54900;BME280;40801;41.924;25.562;2023-01-27T00:00:24;98833.88;;;3.63;83.59
54900;BME280;40801;41.924;25.562;2023-01-27T00:02:50;98827.19;;;3.66;84.45
54900;BME280;40801;41.924;25.562;2023-01-27T00:05:15;98805.56;;;3.72;83.64
54900;BME280;40801;41.924;25.562;2023-01-27T00:07:42;98798.44;;;3.58;84.64
54900;BME280;40801;41.924;25.562;2023-01-27T00:10:18;98795.53;;;3.54;85.57
54900;BME280;40801;41.924;25.562;2023-01-27T00:12:45;98791.94;;;3.74;84.72
54900;BME280;40801;41.924;25.562;2023-01-27T00:15:30;98779.47;;;3.64;84.80
54900;BME280;40801;41.924;25.562;2023-01-27T00:17:55;98790.63;;;3.77;84.15
54900;BME280;40801;41.924;25.562;2023-01-27T00:20:21;98791.94;;;3.79;84.15
54900;BME280;40801;41.924;25.562;2023-01-27T00:23:19;98792.69;;;3.90;82.90
54900;BME280;40801;41.924;25.562;2023-01-27T00:26:06;98800.53;;;3.66;84.10
54900;BME280;40801;41.924;25.562;2023-01-27T00:28:33;98795.44;;;3.69;83.48
54900;BME280;40801;41.924;25.562;2023-01-27T00:30:58;98798.44;;;3.58;84.45
54900;BME280;40801;41.924;25.562;2023-01-27T00:33:25;98788.25;;;3.70;83.48
54900;BME280;40801;41.924;25.562;2023-01-27T00:36:02;98790.09;;;3.74;83.65
54900;BME280;40801;41.924;25.562;2023-01-27T00:38:31;98801.03;;;3.73;82.72
54900;BME280;40801;41.924;25.562;2023-01-27T00:40:56;98793.78;;;3.84;82.22
54900;BME280;40801;41.924;25.562;2023-01-27T00:43:50;98794.09;;;3.77;83.17
54900;BME280;40801;41.924;25.562;2023-01-27T00:46:17;98789.22;;;3.89;82.33
54900;BME280;40801;41.924;25.562;2023-01-27T00:48:43;98801.22;;;3.92;82.00
54900;BME280;40801;41.924;25.562;2023-01-27T00:51:09;98804.94;;;3.91;81.78
54900;BME280;40801;41.924;25.562;2023-01-27T00:53:36;98808.13;;;3.93;81.63
54900;BME280;40801;41.924;25.562;2023-01-27T00:56:02;98799.38;;;3.87;81.98
54900;BME280;40801;41.924;25.562;2023-01-27T00:58:28;98789.06;;;3.65;82.83
54900;BME280;40801;41.924;25.562;2023-01-27T01:00:59;98784.50;;;3.76;82.38
54900;BME280;40801;41.924;25.562;2023-01-27T01:03:26;98793.81;;;3.79;82.50
54900;BME280;40801;41.924;25.562;2023-01-27T01:06:00;98789.59;;;3.67;83.16
54900;BME280;40801;41.924;25.562;2023-01-27T01:08:26;98786.63;;;3.74;82.28
54900;BME280;40801;41.924;25.562;2023-01-27T01:10:52;98793.81;;;3.73;83.00
54900;BME280;40801;41.924;25.562;2023-01-27T01:13:17;98789.00;;;3.76;82.08
54900;BME280;40801;41.924;25.562;2023-01-27T01:15:43;98781.31;;;3.69;82.73
54900;BME280;40801;41.924;25.562;2023-01-27T01:18:09;98771.41;;;3.80;82.98
54900;BME280;40801;41.924;25.562;2023-01-27T01:20:41;98764.53;;;3.68;83.48
54900;BME280;40801;41.924;25.562;2023-01-27T01:23:07;98754.06;;;3.82;82.34
54900;BME280;40801;41.924;25.562;2023-01-27T01:25:34;98757.50;;;3.88;82.16
54900;BME280;40801;41.924;25.562;2023-01-27T01:28:01;98742.09;;;3.80;83.25
54900;BME280;40801;41.924;25.562;2023-01-27T01:30:26;98722.00;;;3.92;82.34
54900;BME280;40801;41.924;25.562;2023-01-27T01:32:53;98714.25;;;3.91;82.83
54900;BME280;40801;41.924;25.562;2023-01-27T01:35:20;98718.94;;;4.09;81.67
54900;BME280;40801;41.924;25.562;2023-01-27T01:37:46;98712.53;;;4.10;81.38
54900;BME280;40801;41.924;25.562;2023-01-27T01:40:11;98705.63;;;4.04;81.89
54900;BME280;40801;41.924;25.562;2023-01-27T01:48:06;98719.47;;;4.11;81.43
54900;BME280;40801;41.924;25.562;2023-01-27T01:50:34;98712.78;;;4.14;81.13
54900;BME280;40801;41.924;25.562;2023-01-27T01:53:02;98705.72;;;3.94;81.57
54900;BME280;40801;41.924;25.562;2023-01-27T01:55:29;98696.03;;;4.03;81.86
54900;BME280;40801;41.924;25.562;2023-01-27T01:57:56;98705.91;;;4.02;81.72
54900;BME280;40801;41.924;25.562;2023-01-27T02:00:22;98713.63;;;4.09;81.09
54900;BME280;40801;41.924;25.562;2023-01-27T02:02:49;98704.06;;;3.98;81.65
54900;BME280;40801;41.924;25.562;2023-01-27T02:05:22;98705.47;;;3.90;81.75
54900;BME280;40801;41.924;25.562;2023-01-27T02:10:25;98728.78;;;3.69;82.53
54900;BME280;40801;41.924;25.562;2023-01-27T02:12:51;98726.34;;;3.78;81.96
54900;BME280;40801;41.924;25.562;2023-01-27T02:15:16;98709.28;;;3.79;82.76
54900;BME280;40801;41.924;25.562;2023-01-27T02:17:42;98690.53;;;3.45;83.96
54900;BME280;40801;41.924;25.562;2023-01-27T02:22:48;98735.78;;;3.60;83.32
54900;BME280;40801;41.924;25.562;2023-01-27T02:25:21;98735.47;;;3.67;83.34
54900;BME280;40801;41.924;25.562;2023-01-27T02:27:50;98725.56;;;3.72;82.38
54900;BME280;40801;41.924;25.562;2023-01-27T02:30:16;98723.97;;;3.71;82.48
54900;BME280;40801;41.924;25.562;2023-01-27T02:32:41;98728.22;;;3.72;82.59
54900;BME280;40801;41.924;25.562;2023-01-27T02:35:10;98719.84;;;3.50;84.15
54900;BME280;40801;41.924;25.562;2023-01-27T02:37:39;98710.16;;;3.64;83.99
54900;BME280;40801;41.924;25.562;2023-01-27T02:40:06;98708.44;;;3.84;83.51
54900;BME280;40801;41.924;25.562;2023-01-27T02:42:33;98692.78;;;3.77;83.33
54900;BME280;40801;41.924;25.562;2023-01-27T02:44:58;98702.75;;;3.95;82.83
54900;BME280;40801;41.924;25.562;2023-01-27T02:47:23;98703.59;;;3.91;82.83
54900;BME280;40801;41.924;25.562;2023-01-27T02:49:49;98689.03;;;3.78;83.80
54900;BME280;40801;41.924;25.562;2023-01-27T02:52:14;98670.63;;;3.77;84.11
54900;BME280;40801;41.924;25.562;2023-01-27T02:54:40;98680.94;;;3.88;83.17
54900;BME280;40801;41.924;25.562;2023-01-27T02:57:06;98690.06;;;3.82;83.71
54900;BME280;40801;41.924;25.562;2023-01-27T02:59:31;98682.72;;;3.98;82.72
54900;BME280;40801;41.924;25.562;2023-01-27T03:01:57;98689.38;;;4.00;82.44
54900;BME280;40801;41.924;25.562;2023-01-27T03:04:22;98701.09;;;4.04;82.45
54900;BME280;40801;41.924;25.562;2023-01-27T03:06:47;98687.69;;;4.15;81.67
54900;BME280;40801;41.924;25.562;2023-01-27T03:09:13;98674.28;;;4.20;81.61
54900;BME280;40801;41.924;25.562;2023-01-27T03:11:38;98680.53;;;4.10;82.01
54900;BME280;40801;41.924;25.562;2023-01-27T03:14:22;98686.56;;;4.21;81.12
54900;BME280;40801;41.924;25.562;2023-01-27T03:17:06;98682.47;;;4.28;81.17
54900;BME280;40801;41.924;25.562;2023-01-27T03:19:50;98671.50;;;4.35;80.41
54900;BME280;40801;41.924;25.562;2023-01-27T03:22:17;98675.41;;;4.14;81.13
54900;BME280;40801;41.924;25.562;2023-01-27T03:24:44;98672.19;;;4.17;81.81
54900;BME280;40801;41.924;25.562;2023-01-27T03:27:09;98658.22;;;4.25;81.03
54900;BME280;40801;41.924;25.562;2023-01-27T03:29:35;98664.09;;;4.27;81.84
54900;BME280;40801;41.924;25.562;2023-01-27T03:32:19;98680.03;;;4.32;81.07
54900;BME280;40801;41.924;25.562;2023-01-27T03:34:44;98690.38;;;4.44;80.53
54900;BME280;40801;41.924;25.562;2023-01-27T03:37:09;98702.59;;;4.50;80.72
54900;BME280;40801;41.924;25.562;2023-01-27T03:39:53;98705.59;;;4.43;80.91
54900;BME280;40801;41.924;25.562;2023-01-27T03:42:37;98700.75;;;4.45;80.95
54900;BME280;40801;41.924;25.562;2023-01-27T03:45:21;98688.50;;;4.44;80.79
54900;BME280;40801;41.924;25.562;2023-01-27T03:48:05;98682.25;;;4.54;80.56
54900;BME280;40801;41.924;25.562;2023-01-27T03:50:30;98679.06;;;4.52;80.65
54900;BME280;40801;41.924;25.562;2023-01-27T03:53:02;98680.09;;;4.56;80.58
54900;BME280;40801;41.924;25.562;2023-01-27T03:55:29;98678.16;;;4.61;79.94
54900;BME280;40801;41.924;25.562;2023-01-27T03:57:54;98674.47;;;4.57;80.44
54900;BME280;40801;41.924;25.562;2023-01-27T04:00:22;98656.56;;;4.58;79.95
54900;BME280;40801;41.924;25.562;2023-01-27T04:02:47;98660.16;;;4.48;80.73
54900;BME280;40801;41.924;25.562;2023-01-27T04:05:31;98645.78;;;4.44;81.17
54900;BME280;40801;41.924;25.562;2023-01-27T04:08:15;98655.44;;;4.40;81.78
54900;BME280;40801;41.924;25.562;2023-01-27T04:10:40;98641.75;;;4.47;81.69
54900;BME280;40801;41.924;25.562;2023-01-27T04:13:26;98633.84;;;4.37;81.74
54900;BME280;40801;41.924;25.562;2023-01-27T04:15:53;98625.28;;;4.40;82.08
54900;BME280;40801;41.924;25.562;2023-01-27T04:18:18;98616.34;;;4.49;81.97
54900;BME280;40801;41.924;25.562;2023-01-27T04:20:44;98603.22;;;4.53;81.68
54900;BME280;40801;41.924;25.562;2023-01-27T04:23:09;98600.56;;;4.53;81.49
54900;BME280;40801;41.924;25.562;2023-01-27T04:25:35;98598.31;;;4.41;82.29
54900;BME280;40801;41.924;25.562;2023-01-27T04:28:00;98613.34;;;4.56;81.73
54900;BME280;40801;41.924;25.562;2023-01-27T04:30:26;98622.22;;;4.51;81.50
54900;BME280;40801;41.924;25.562;2023-01-27T04:32:51;98610.72;;;4.51;81.51
54900;BME280;40801;41.924;25.562;2023-01-27T04:35:16;98598.19;;;4.51;82.00
54900;BME280;40801;41.924;25.562;2023-01-27T04:37:42;98602.50;;;4.47;82.49
54900;BME280;40801;41.924;25.562;2023-01-27T04:40:08;98601.66;;;4.52;82.16
54900;BME280;40801;41.924;25.562;2023-01-27T04:42:33;98593.41;;;4.48;82.05
54900;BME280;40801;41.924;25.562;2023-01-27T04:44:59;98621.00;;;4.62;81.27
54900;BME280;40801;41.924;25.562;2023-01-27T04:47:24;98626.09;;;4.64;81.15
54900;BME280;40801;41.924;25.562;2023-01-27T04:49:50;98632.72;;;4.66;80.97
54900;BME280;40801;41.924;25.562;2023-01-27T04:52:15;98636.81;;;4.59;81.61
54900;BME280;40801;41.924;25.562;2023-01-27T04:54:41;98642.84;;;4.70;80.98
54900;BME280;40801;41.924;25.562;2023-01-27T04:57:06;98641.31;;;4.63;81.10
54900;BME280;40801;41.924;25.562;2023-01-27T04:59:31;98642.38;;;4.62;80.58
54900;BME280;40801;41.924;25.562;2023-01-27T05:01:57;98646.13;;;4.61;80.69
54900;BME280;40801;41.924;25.562;2023-01-27T05:04:23;98634.69;;;4.56;80.74
54900;BME280;40801;41.924;25.562;2023-01-27T05:06:50;98655.84;;;4.52;80.40
54900;BME280;40801;41.924;25.562;2023-01-27T05:09:15;98652.94;;;4.49;80.85
54900;BME280;40801;41.924;25.562;2023-01-27T05:11:41;98643.84;;;4.50;80.69
54900;BME280;40801;41.924;25.562;2023-01-27T05:14:06;98652.47;;;4.42;80.87
54900;BME280;40801;41.924;25.562;2023-01-27T05:16:31;98648.09;;;4.51;81.06
54900;BME280;40801;41.924;25.562;2023-01-27T05:18:57;98647.66;;;4.44;81.09
54900;BME280;40801;41.924;25.562;2023-01-27T05:21:24;98637.41;;;4.27;82.24
54900;BME280;40801;41.924;25.562;2023-01-27T05:23:52;98631.25;;;4.26;82.21
54900;BME280;40801;41.924;25.562;2023-01-27T05:26:23;98627.75;;;4.31;81.72
54900;BME280;40801;41.924;25.562;2023-01-27T05:28:50;98630.09;;;4.38;81.96
54900;BME280;40801;41.924;25.562;2023-01-27T05:31:21;98647.50;;;4.30;81.76
54900;BME280;40801;41.924;25.562;2023-01-27T05:33:49;98642.81;;;4.46;80.89
54900;BME280;40801;41.924;25.562;2023-01-27T05:36:17;98646.34;;;4.41;81.22
54900;BME280;40801;41.924;25.562;2023-01-27T05:38:43;98643.69;;;4.41;81.61
54900;BME280;40801;41.924;25.562;2023-01-27T05:41:10;98630.78;;;4.48;81.35
54900;BME280;40801;41.924;25.562;2023-01-27T05:43:38;98638.19;;;4.27;81.84
54900;BME280;40801;41.924;25.562;2023-01-27T05:46:36;98656.91;;;4.22;81.56
54900;BME280;40801;41.924;25.562;2023-01-27T05:49:03;98663.16;;;4.13;82.10
54900;BME280;40801;41.924;25.562;2023-01-27T05:51:33;98658.38;;;4.10;82.90
54900;BME280;40801;41.924;25.562;2023-01-27T05:53:59;98657.06;;;4.07;82.96
54900;BME280;40801;41.924;25.562;2023-01-27T05:56:24;98663.50;;;4.01;83.28
54900;BME280;40801;41.924;25.562;2023-01-27T05:58:53;98658.38;;;4.10;82.93
54900;BME280;40801;41.924;25.562;2023-01-27T06:01:22;98669.81;;;4.15;82.55
54900;BME280;40801;41.924;25.562;2023-01-27T06:03:48;98678.03;;;4.19;81.67
54900;BME280;40801;41.924;25.562;2023-01-27T06:06:18;98688.75;;;4.14;82.07
54900;BME280;40801;41.924;25.562;2023-01-27T06:08:44;98689.84;;;4.13;82.75
54900;BME280;40801;41.924;25.562;2023-01-27T06:11:10;98679.97;;;4.13;82.55
54900;BME280;40801;41.924;25.562;2023-01-27T06:13:36;98685.13;;;3.99;82.81
54900;BME280;40801;41.924;25.562;2023-01-27T06:16:05;98680.84;;;3.98;82.83
54900;BME280;40801;41.924;25.562;2023-01-27T06:18:31;98685.97;;;3.95;83.66
54900;BME280;40801;41.924;25.562;2023-01-27T06:20:57;98689.66;;;3.99;83.45
54900;BME280;40801;41.924;25.562;2023-01-27T06:23:23;98684.84;;;4.01;83.68
54900;BME280;40801;41.924;25.562;2023-01-27T06:25:49;98680.03;;;4.03;83.15
54900;BME280;40801;41.924;25.562;2023-01-27T06:28:15;98684.56;;;4.02;83.70
54900;BME280;40801;41.924;25.562;2023-01-27T06:30:41;98686.09;;;4.14;82.60
54900;BME280;40801;41.924;25.562;2023-01-27T06:33:07;98678.69;;;4.06;83.37
54900;BME280;40801;41.924;25.562;2023-01-27T06:35:34;98677.63;;;4.07;83.74
54900;BME280;40801;41.924;25.562;2023-01-27T06:38:00;98671.22;;;4.02;84.38
54900;BME280;40801;41.924;25.562;2023-01-27T06:40:29;98672.00;;;4.08;84.44
54900;BME280;40801;41.924;25.562;2023-01-27T06:42:54;98661.84;;;4.10;84.20
54900;BME280;40801;41.924;25.562;2023-01-27T06:45:20;98661.31;;;4.08;84.47
54900;BME280;40801;41.924;25.562;2023-01-27T06:47:53;98667.09;;;3.86;86.27
54900;BME280;40801;41.924;25.562;2023-01-27T06:50:18;98664.16;;;3.88;85.37
54900;BME280;40801;41.924;25.562;2023-01-27T06:52:44;98672.56;;;4.00;85.21
54900;BME280;40801;41.924;25.562;2023-01-27T06:55:09;98678.94;;;4.09;84.86
54900;BME280;40801;41.924;25.562;2023-01-27T06:57:34;98677.63;;;4.01;85.24
54900;BME280;40801;41.924;25.562;2023-01-27T07:00:00;98677.91;;;4.00;84.80
54900;BME280;40801;41.924;25.562;2023-01-27T07:02:25;98682.38;;;4.10;83.98
54900;BME280;40801;41.924;25.562;2023-01-27T07:04:51;98678.41;;;4.07;84.10
54900;BME280;40801;41.924;25.562;2023-01-27T07:07:16;98679.22;;;4.08;84.03
54900;BME280;40801;41.924;25.562;2023-01-27T07:09:41;98674.16;;;4.01;84.54
54900;BME280;40801;41.924;25.562;2023-01-27T07:12:07;98675.81;;;3.97;85.22
54900;BME280;40801;41.924;25.562;2023-01-27T07:14:32;98678.00;;;3.90;85.92
54900;BME280;40801;41.924;25.562;2023-01-27T07:16:57;98666.94;;;4.07;84.58
54900;BME280;40801;41.924;25.562;2023-01-27T07:19:23;98667.56;;;3.93;85.60
54900;BME280;40801;41.924;25.562;2023-01-27T07:21:48;98659.47;;;4.09;85.65
54900;BME280;40801;41.924;25.562;2023-01-27T07:24:13;98663.94;;;4.13;85.91
54900;BME280;40801;41.924;25.562;2023-01-27T07:26:39;98665.16;;;4.26;85.33
54900;BME280;40801;41.924;25.562;2023-01-27T07:29:04;98663.56;;;4.25;85.26
54900;BME280;40801;41.924;25.562;2023-01-27T07:31:32;98659.22;;;4.34;84.94
54900;BME280;40801;41.924;25.562;2023-01-27T07:33:57;98660.94;;;4.49;85.48
54900;BME280;40801;41.924;25.562;2023-01-27T07:36:23;98649.16;;;4.26;87.29
54900;BME280;40801;41.924;25.562;2023-01-27T07:38:48;98651.91;;;4.45;85.81
54900;BME280;40801;41.924;25.562;2023-01-27T07:41:14;98652.72;;;4.45;86.19
54900;BME280;40801;41.924;25.562;2023-01-27T07:43:40;98651.22;;;4.58;85.04
54900;BME280;40801;41.924;25.562;2023-01-27T07:46:05;98645.53;;;4.70;85.41
54900;BME280;40801;41.924;25.562;2023-01-27T07:48:31;98643.13;;;4.68;85.87
54900;BME280;40801;41.924;25.562;2023-01-27T07:50:56;98637.16;;;4.76;85.16
54900;BME280;40801;41.924;25.562;2023-01-27T07:53:21;98625.09;;;4.79;85.10
54900;BME280;40801;41.924;25.562;2023-01-27T07:55:47;98620.13;;;4.91;85.60
54900;BME280;40801;41.924;25.562;2023-01-27T07:58:12;98616.00;;;5.04;84.84
54900;BME280;40801;41.924;25.562;2023-01-27T08:00:38;98619.16;;;5.06;84.70
54900;BME280;40801;41.924;25.562;2023-01-27T08:03:03;98615.25;;;4.98;83.90
54900;BME280;40801;41.924;25.562;2023-01-27T08:05:32;98607.88;;;4.90;85.05
54900;BME280;40801;41.924;25.562;2023-01-27T08:07:57;98606.47;;;4.97;84.97
54900;BME280;40801;41.924;25.562;2023-01-27T08:10:23;98612.31;;;5.00;85.05
54900;BME280;40801;41.924;25.562;2023-01-27T08:12:48;98609.41;;;4.96;85.21
54900;BME280;40801;41.924;25.562;2023-01-27T08:15:14;98608.97;;;5.08;84.32
54900;BME280;40801;41.924;25.562;2023-01-27T08:17:40;98620.03;;;5.01;84.41
54900;BME280;40801;41.924;25.562;2023-01-27T08:20:06;98616.34;;;4.97;84.73
54900;BME280;40801;41.924;25.562;2023-01-27T08:22:31;98616.72;;;4.66;86.40
54900;BME280;40801;41.924;25.562;2023-01-27T08:24:57;98624.03;;;4.80;85.65
54900;BME280;40801;41.924;25.562;2023-01-27T08:27:22;98619.75;;;4.55;86.89
54900;BME280;40801;41.924;25.562;2023-01-27T08:29:48;98617.44;;;4.72;85.79
54900;BME280;40801;41.924;25.562;2023-01-27T08:32:13;98623.88;;;4.71;85.83
54900;BME280;40801;41.924;25.562;2023-01-27T08:34:39;98629.81;;;4.87;84.69
54900;BME280;40801;41.924;25.562;2023-01-27T08:37:05;98614.72;;;4.77;85.91
54900;BME280;40801;41.924;25.562;2023-01-27T08:39:31;98626.56;;;4.90;85.22
54900;BME280;40801;41.924;25.562;2023-01-27T08:41:56;98624.94;;;4.94;85.68
54900;BME280;40801;41.924;25.562;2023-01-27T08:44:22;98622.13;;;5.04;84.92
54900;BME280;40801;41.924;25.562;2023-01-27T08:46:48;98622.06;;;5.09;84.43
54900;BME280;40801;41.924;25.562;2023-01-27T08:49:13;98619.09;;;5.11;84.48
54900;BME280;40801;41.924;25.562;2023-01-27T08:51:40;98616.94;;;5.13;84.43
54900;BME280;40801;41.924;25.562;2023-01-27T08:54:06;98614.91;;;5.05;84.25
54900;BME280;40801;41.924;25.562;2023-01-27T08:56:32;98610.56;;;5.09;84.58
54900;BME280;40801;41.924;25.562;2023-01-27T08:58:58;98606.13;;;5.23;83.59
54900;BME280;40801;41.924;25.562;2023-01-27T09:01:23;98602.94;;;5.21;83.49
54900;BME280;40801;41.924;25.562;2023-01-27T09:03:49;98602.94;;;5.21;84.14
54900;BME280;40801;41.924;25.562;2023-01-27T09:06:15;98603.31;;;5.33;83.13
54900;BME280;40801;41.924;25.562;2023-01-27T09:08:42;98597.66;;;5.35;83.04
54900;BME280;40801;41.924;25.562;2023-01-27T09:11:15;98613.41;;;5.36;83.28
54900;BME280;40801;41.924;25.562;2023-01-27T09:13:41;98610.94;;;5.40;82.81
54900;BME280;40801;41.924;25.562;2023-01-27T09:16:07;98606.09;;;5.42;82.64
54900;BME280;40801;41.924;25.562;2023-01-27T09:18:33;98605.47;;;5.50;82.23
54900;BME280;40801;41.924;25.562;2023-01-27T09:21:05;98602.13;;;5.39;82.69
54900;BME280;40801;41.924;25.562;2023-01-27T09:23:32;98605.47;;;5.50;82.47
54900;BME280;40801;41.924;25.562;2023-01-27T09:25:58;98603.72;;;5.40;83.02
54900;BME280;40801;41.924;25.562;2023-01-27T09:28:23;98604.16;;;5.47;82.55
54900;BME280;40801;41.924;25.562;2023-01-27T09:30:48;98599.75;;;5.56;82.80
54900;BME280;40801;41.924;25.562;2023-01-27T09:33:14;98595.41;;;5.60;82.31
54900;BME280;40801;41.924;25.562;2023-01-27T09:38:30;98593.03;;;5.40;82.87
54900;BME280;40801;41.924;25.562;2023-01-27T09:41:16;98600.91;;;5.50;82.60
54900;BME280;40801;41.924;25.562;2023-01-27T09:52:05;98589.97;;;5.47;83.37
54900;BME280;40801;41.924;25.562;2023-01-27T10:09:25;98570.44;;;5.33;84.19
54900;BME280;40801;41.924;25.562;2023-01-27T10:19:56;98559.84;;;5.41;83.46
54900;BME280;40801;41.924;25.562;2023-01-27T10:25:22;98559.28;;;5.44;82.69
54900;BME280;40801;41.924;25.562;2023-01-27T10:27:54;98546.25;;;5.56;83.00
54900;BME280;40801;41.924;25.562;2023-01-27T10:30:38;98534.47;;;5.57;83.19
54900;BME280;40801;41.924;25.562;2023-01-27T10:33:18;98535.59;;;5.70;83.27
54900;BME280;40801;41.924;25.562;2023-01-27T10:38:32;98524.16;;;5.83;83.17
54900;BME280;40801;41.924;25.562;2023-01-27T10:41:09;98518.16;;;5.73;83.82
54900;BME280;40801;41.924;25.562;2023-01-27T10:49:36;98516.38;;;6.01;83.01
54900;BME280;40801;41.924;25.562;2023-01-27T10:51:56;98516.25;;;6.06;82.65
54900;BME280;40801;41.924;25.562;2023-01-27T10:54:37;98510.13;;;5.92;83.31
54900;BME280;40801;41.924;25.562;2023-01-27T10:57:11;98500.63;;;6.13;82.78
54900;BME280;40801;41.924;25.562;2023-01-27T11:00:04;98502.81;;;6.25;82.69
54900;BME280;40801;41.924;25.562;2023-01-27T11:02:39;98495.88;;;6.37;82.14
54900;BME280;40801;41.924;25.562;2023-01-27T11:05:08;98500.03;;;6.30;83.25
54900;BME280;40801;41.924;25.562;2023-01-27T11:07:47;98492.00;;;6.30;82.06
54900;BME280;40801;41.924;25.562;2023-01-27T11:10:19;98483.06;;;6.34;83.05
54900;BME280;40801;41.924;25.562;2023-01-27T11:12:51;98483.06;;;6.07;84.50
54900;BME280;40801;41.924;25.562;2023-01-27T11:17:55;98481.38;;;6.25;83.78
54900;BME280;40801;41.924;25.562;2023-01-27T11:20:32;98484.16;;;6.19;84.03
54900;BME280;40801;41.924;25.562;2023-01-27T11:34:48;98476.81;;;6.52;82.57
54900;BME280;40801;41.924;25.562;2023-01-27T11:37:20;98473.41;;;6.61;82.23
54900;BME280;40801;41.924;25.562;2023-01-27T11:39:47;98472.63;;;6.60;82.63
54900;BME280;40801;41.924;25.562;2023-01-27T11:42:13;98473.81;;;6.68;83.16
54900;BME280;40801;41.924;25.562;2023-01-27T11:44:41;98472.38;;;6.84;83.37
54900;BME280;40801;41.924;25.562;2023-01-27T11:47:10;98462.78;;;7.05;81.30
54900;BME280;40801;41.924;25.562;2023-01-27T11:49:43;98464.31;;;6.98;82.40
54900;BME280;40801;41.924;25.562;2023-01-27T11:52:16;98461.13;;;6.96;82.66
54900;BME280;40801;41.924;25.562;2023-01-27T11:54:53;98463.44;;;7.11;81.99
54900;BME280;40801;41.924;25.562;2023-01-27T11:57:23;98456.19;;;7.11;82.43
54900;BME280;40801;41.924;25.562;2023-01-27T11:59:53;98454.06;;;7.22;82.19
54900;BME280;40801;41.924;25.562;2023-01-27T12:04:56;98445.22;;;7.75;80.85
54900;BME280;40801;41.924;25.562;2023-01-27T12:10:31;98440.97;;;7.52;80.22
54900;BME280;40801;41.924;25.562;2023-01-27T12:13:15;98440.91;;;8.05;79.22
54900;BME280;40801;41.924;25.562;2023-01-27T12:16:02;98428.41;;;8.00;78.48
54900;BME280;40801;41.924;25.562;2023-01-27T12:18:32;98427.09;;;7.81;77.48
54900;BME280;40801;41.924;25.562;2023-01-27T12:21:02;98423.34;;;7.90;77.77
54900;BME280;40801;41.924;25.562;2023-01-27T12:23:35;98430.75;;;7.85;77.83
54900;BME280;40801;41.924;25.562;2023-01-27T12:26:04;98432.72;;;7.70;78.09
54900;BME280;40801;41.924;25.562;2023-01-27T12:31:08;98433.63;;;7.57;77.48
54900;BME280;40801;41.924;25.562;2023-01-27T12:33:37;98425.31;;;7.45;77.70
54900;BME280;40801;41.924;25.562;2023-01-27T12:36:17;98428.38;;;7.52;78.04
54900;BME280;40801;41.924;25.562;2023-01-27T12:38:52;98419.53;;;7.52;78.45
54900;BME280;40801;41.924;25.562;2023-01-27T12:41:21;98418.88;;;7.46;77.83
54900;BME280;40801;41.924;25.562;2023-01-27T12:44:14;98416.63;;;7.39;77.59
54900;BME280;40801;41.924;25.562;2023-01-27T12:47:02;98426.41;;;7.66;77.18
54900;BME280;40801;41.924;25.562;2023-01-27T12:49:32;98429.06;;;7.66;76.79
54900;BME280;40801;41.924;25.562;2023-01-27T12:52:01;98434.25;;;7.54;77.65
54900;BME280;40801;41.924;25.562;2023-01-27T12:54:30;98428.50;;;7.47;77.44
54900;BME280;40801;41.924;25.562;2023-01-27T12:57:02;98427.09;;;7.50;77.33
54900;BME280;40801;41.924;25.562;2023-01-27T12:59:29;98430.53;;;7.41;77.76
54900;BME280;40801;41.924;25.562;2023-01-27T13:04:42;98434.78;;;7.20;78.58
54900;BME280;40801;41.924;25.562;2023-01-27T13:07:16;98437.94;;;7.44;77.69
54900;BME280;40801;41.924;25.562;2023-01-27T13:09:56;98432.06;;;7.34;78.34
54900;BME280;40801;41.924;25.562;2023-01-27T13:12:31;98449.13;;;7.38;77.83
54900;BME280;40801;41.924;25.562;2023-01-27T13:15:17;98448.50;;;7.41;77.24
54900;BME280;40801;41.924;25.562;2023-01-27T13:17:50;98456.84;;;7.39;77.17
54900;BME280;40801;41.924;25.562;2023-01-27T13:20:18;98453.38;;;7.39;77.40
54900;BME280;40801;41.924;25.562;2023-01-27T13:22:49;98451.66;;;7.43;76.92
54900;BME280;40801;41.924;25.562;2023-01-27T13:25:20;98445.78;;;7.32;77.49
54900;BME280;40801;41.924;25.562;2023-01-27T13:27:48;98447.72;;;7.40;77.87
54900;BME280;40801;41.924;25.562;2023-01-27T13:30:22;98453.94;;;7.27;78.24
54900;BME280;40801;41.924;25.562;2023-01-27T13:32:52;98455.34;;;7.25;78.11
54900;BME280;40801;41.924;25.562;2023-01-27T13:35:33;98453.56;;;7.20;77.67
54900;BME280;40801;41.924;25.562;2023-01-27T13:38:18;98454.31;;;7.34;77.25
54900;BME280;40801;41.924;25.562;2023-01-27T13:40:46;98458.81;;;7.25;76.38
54900;BME280;40801;41.924;25.562;2023-01-27T13:43:35;98459.13;;;7.01;76.81
54900;BME280;40801;41.924;25.562;2023-01-27T13:46:23;98464.09;;;7.17;77.15
54900;BME280;40801;41.924;25.562;2023-01-27T13:48:56;98464.44;;;6.79;77.55
54900;BME280;40801;41.924;25.562;2023-01-27T13:51:24;98466.53;;;6.82;77.20
54900;BME280;40801;41.924;25.562;2023-01-27T13:54:02;98461.75;;;6.79;77.04
54900;BME280;40801;41.924;25.562;2023-01-27T13:56:48;98463.84;;;6.82;77.36
54900;BME280;40801;41.924;25.562;2023-01-27T14:05:21;98460.91;;;6.56;78.28
54900;BME280;40801;41.924;25.562;2023-01-27T14:07:56;98453.19;;;6.55;78.25
54900;BME280;40801;41.924;25.562;2023-01-27T14:10:39;98452.81;;;6.47;78.14
54900;BME280;40801;41.924;25.562;2023-01-27T14:19:52;98469.34;;;6.63;77.79
54900;BME280;40801;41.924;25.562;2023-01-27T14:22:02;98461.22;;;6.55;78.31
54900;BME280;40801;41.924;25.562;2023-01-27T14:27:34;98457.94;;;6.71;77.30
54900;BME280;40801;41.924;25.562;2023-01-27T14:30:23;98460.50;;;6.63;77.66
54900;BME280;40801;41.924;25.562;2023-01-27T14:35:58;98467.06;;;6.93;76.86
54900;BME280;40801;41.924;25.562;2023-01-27T14:39:01;98471.56;;;6.83;77.57
54900;BME280;40801;41.924;25.562;2023-01-27T14:44:04;98466.06;;;6.66;77.94
54900;BME280;40801;41.924;25.562;2023-01-27T14:46:57;98458.47;;;6.82;76.76
54900;BME280;40801;41.924;25.562;2023-01-27T14:49:36;98461.16;;;6.82;77.04
54900;BME280;40801;41.924;25.562;2023-01-27T14:52:38;98471.22;;;6.63;76.84
54900;BME280;40801;41.924;25.562;2023-01-27T14:55:18;98472.47;;;6.79;76.91